sensor_id;sensor_type;location;lat;lon;timestamp;P1;durP1;ratioP1;P2;durP2;ratioP2
58874;SDS011;44652;49.040;12.126;2023-03-01T05:43:19;32.75;;;18.77;;
58874;SDS011;44652;49.040;12.126;2023-03-01T05:45:46;34.15;;;18.58;;
58874;SDS011;44652;49.040;12.126;2023-03-01T05:48:13;31.77;;;18.42;;
58874;SDS011;44652;49.040;12.126;2023-03-01T05:50:41;33.70;;;19.52;;
58874;SDS011;44652;49.040;12.126;2023-03-01T05:53:15;32.00;;;18.73;;
58874;SDS011;44652;49.040;12.126;2023-03-01T05:55:42;34.92;;;19.23;;
58874;SDS011;44652;49.040;12.126;2023-03-01T05:58:12;32.28;;;18.80;;
58874;SDS011;44652;49.040;12.126;2023-03-01T06:00:40;35.35;;;18.77;;
58874;SDS011;44652;49.040;12.126;2023-03-01T06:03:09;34.33;;;19.38;;
58874;SDS011;44652;49.040;12.126;2023-03-01T06:05:36;34.03;;;19.65;;
58874;SDS011;44652;49.040;12.126;2023-03-01T06:08:03;32.33;;;18.77;;
58874;SDS011;44652;49.040;12.126;2023-03-01T06:10:29;30.90;;;18.63;;
58874;SDS011;44652;49.040;12.126;2023-03-01T06:12:56;32.65;;;19.30;;
58874;SDS011;44652;49.040;12.126;2023-03-01T06:15:22;35.78;;;19.77;;
58874;SDS011;44652;49.040;12.126;2023-03-01T06:17:49;32.92;;;19.13;;
58874;SDS011;44652;49.040;12.126;2023-03-01T06:22:44;33.45;;;18.60;;
58874;SDS011;44652;49.040;12.126;2023-03-01T06:25:11;32.95;;;18.88;;
58874;SDS011;44652;49.040;12.126;2023-03-01T06:27:38;32.55;;;18.95;;
58874;SDS011;44652;49.040;12.126;2023-03-01T06:30:06;33.53;;;19.08;;
58874;SDS011;44652;49.040;12.126;2023-03-01T06:32:33;31.77;;;19.05;;
58874;SDS011;44652;49.040;12.126;2023-03-01T06:34:59;32.30;;;18.95;;
58874;SDS011;44652;49.040;12.126;2023-03-01T06:37:26;32.42;;;18.13;;
58874;SDS011;44652;49.040;12.126;2023-03-01T06:39:52;35.17;;;18.90;;
58874;SDS011;44652;49.040;12.126;2023-03-01T06:42:19;31.30;;;18.45;;
58874;SDS011;44652;49.040;12.126;2023-03-01T06:44:45;32.20;;;19.58;;
58874;SDS011;44652;49.040;12.126;2023-03-01T06:47:12;31.70;;;18.80;;
58874;SDS011;44652;49.040;12.126;2023-03-01T06:49:39;30.92;;;19.00;;
58874;SDS011;44652;49.040;12.126;2023-03-01T06:52:05;38.25;;;20.02;;
58874;SDS011;44652;49.040;12.126;2023-03-01T06:54:32;36.88;;;20.38;;
58874;SDS011;44652;49.040;12.126;2023-03-01T06:56:58;33.97;;;20.10;;
58874;SDS011;44652;49.040;12.126;2023-03-01T06:59:25;32.72;;;19.90;;
58874;SDS011;44652;49.040;12.126;2023-03-01T07:01:51;36.33;;;20.58;;
58874;SDS011;44652;49.040;12.126;2023-03-01T07:04:18;35.25;;;21.40;;
58874;SDS011;44652;49.040;12.126;2023-03-01T07:06:44;34.78;;;19.48;;
58874;SDS011;44652;49.040;12.126;2023-03-01T07:09:11;34.28;;;19.77;;
58874;SDS011;44652;49.040;12.126;2023-03-01T07:11:37;33.22;;;19.70;;
58874;SDS011;44652;49.040;12.126;2023-03-01T07:14:04;34.20;;;19.75;;
58874;SDS011;44652;49.040;12.126;2023-03-01T07:16:31;37.28;;;20.13;;
58874;SDS011;44652;49.040;12.126;2023-03-01T07:18:58;34.00;;;18.33;;
58874;SDS011;44652;49.040;12.126;2023-03-01T07:21:26;39.10;;;19.13;;
58874;SDS011;44652;49.040;12.126;2023-03-01T07:23:52;34.88;;;20.05;;
58874;SDS011;44652;49.040;12.126;2023-03-01T07:26:19;33.33;;;18.88;;
58874;SDS011;44652;49.040;12.126;2023-03-01T07:28:46;34.10;;;19.70;;
58874;SDS011;44652;49.040;12.126;2023-03-01T07:31:13;36.45;;;20.25;;
58874;SDS011;44652;49.040;12.126;2023-03-01T07:33:43;31.25;;;18.80;;
58874;SDS011;44652;49.040;12.126;2023-03-01T07:36:13;33.88;;;19.50;;
58874;SDS011;44652;49.040;12.126;2023-03-01T07:38:39;36.40;;;19.70;;
58874;SDS011;44652;49.040;12.126;2023-03-01T07:41:06;33.17;;;19.60;;
58874;SDS011;44652;49.040;12.126;2023-03-01T07:43:33;34.42;;;19.40;;
58874;SDS011;44652;49.040;12.126;2023-03-01T07:46:00;34.80;;;19.60;;
58874;SDS011;44652;49.040;12.126;2023-03-01T07:48:27;34.78;;;20.10;;
58874;SDS011;44652;49.040;12.126;2023-03-01T07:50:54;35.97;;;19.90;;
58874;SDS011;44652;49.040;12.126;2023-03-01T07:53:20;30.70;;;18.52;;
58874;SDS011;44652;49.040;12.126;2023-03-01T07:55:47;28.33;;;18.08;;
58874;SDS011;44652;49.040;12.126;2023-03-01T07:58:14;32.38;;;19.10;;
58874;SDS011;44652;49.040;12.126;2023-03-01T08:00:40;31.00;;;18.08;;
58874;SDS011;44652;49.040;12.126;2023-03-01T08:03:07;29.38;;;17.98;;
58874;SDS011;44652;49.040;12.126;2023-03-01T08:05:33;31.80;;;18.70;;
58874;SDS011;44652;49.040;12.126;2023-03-01T08:08:00;33.30;;;18.75;;
58874;SDS011;44652;49.040;12.126;2023-03-01T08:10:26;31.90;;;19.27;;
58874;SDS011;44652;49.040;12.126;2023-03-01T08:12:53;31.55;;;18.67;;
58874;SDS011;44652;49.040;12.126;2023-03-01T08:15:19;30.90;;;18.75;;
58874;SDS011;44652;49.040;12.126;2023-03-01T08:17:48;33.25;;;19.70;;
58874;SDS011;44652;49.040;12.126;2023-03-01T08:22:42;32.50;;;19.08;;
58874;SDS011;44652;49.040;12.126;2023-03-01T08:25:09;31.42;;;18.63;;
58874;SDS011;44652;49.040;12.126;2023-03-01T08:27:36;32.17;;;19.15;;
58874;SDS011;44652;49.040;12.126;2023-03-01T08:30:02;30.15;;;18.65;;
58874;SDS011;44652;49.040;12.126;2023-03-01T08:32:29;30.83;;;18.88;;
58874;SDS011;44652;49.040;12.126;2023-03-01T08:34:55;30.40;;;19.45;;
58874;SDS011;44652;49.040;12.126;2023-03-01T08:37:22;31.90;;;18.83;;
58874;SDS011;44652;49.040;12.126;2023-03-01T08:39:49;31.05;;;19.42;;
58874;SDS011;44652;49.040;12.126;2023-03-01T08:42:15;31.45;;;18.92;;
58874;SDS011;44652;49.040;12.126;2023-03-01T08:44:42;29.73;;;18.23;;
58874;SDS011;44652;49.040;12.126;2023-03-01T08:47:11;28.50;;;17.83;;
58874;SDS011;44652;49.040;12.126;2023-03-01T08:49:37;34.22;;;19.35;;
58874;SDS011;44652;49.040;12.126;2023-03-01T08:52:04;28.60;;;17.80;;
58874;SDS011;44652;49.040;12.126;2023-03-01T08:54:30;31.85;;;19.13;;
58874;SDS011;44652;49.040;12.126;2023-03-01T08:56:57;28.52;;;17.85;;
58874;SDS011;44652;49.040;12.126;2023-03-01T08:59:25;30.55;;;17.45;;
58874;SDS011;44652;49.040;12.126;2023-03-01T09:01:51;31.67;;;17.27;;
58874;SDS011;44652;49.040;12.126;2023-03-01T09:04:18;30.38;;;18.85;;
58874;SDS011;44652;49.040;12.126;2023-03-01T09:06:45;32.33;;;18.33;;
58874;SDS011;44652;49.040;12.126;2023-03-01T09:09:15;31.92;;;18.38;;
58874;SDS011;44652;49.040;12.126;2023-03-01T09:11:42;26.77;;;16.77;;
58874;SDS011;44652;49.040;12.126;2023-03-01T09:14:10;28.17;;;16.37;;
58874;SDS011;44652;49.040;12.126;2023-03-01T09:16:37;30.70;;;17.98;;
58874;SDS011;44652;49.040;12.126;2023-03-01T09:19:04;26.85;;;16.33;;
58874;SDS011;44652;49.040;12.126;2023-03-01T09:21:30;26.45;;;16.88;;
58874;SDS011;44652;49.040;12.126;2023-03-01T09:24:06;26.60;;;16.08;;
58874;SDS011;44652;49.040;12.126;2023-03-01T09:26:37;30.35;;;17.08;;
58874;SDS011;44652;49.040;12.126;2023-03-01T09:29:04;26.98;;;16.48;;
58874;SDS011;44652;49.040;12.126;2023-03-01T09:31:30;27.48;;;16.85;;
58874;SDS011;44652;49.040;12.126;2023-03-01T09:33:57;31.90;;;18.02;;
58874;SDS011;44652;49.040;12.126;2023-03-01T09:36:24;28.30;;;18.27;;
58874;SDS011;44652;49.040;12.126;2023-03-01T09:38:51;31.38;;;18.05;;
58874;SDS011;44652;49.040;12.126;2023-03-01T09:46:49;29.40;;;18.00;;
58874;SDS011;44652;49.040;12.126;2023-03-01T09:49:23;26.90;;;17.75;;
58874;SDS011;44652;49.040;12.126;2023-03-01T09:51:58;29.38;;;17.75;;
58874;SDS011;44652;49.040;12.126;2023-03-01T09:54:26;26.70;;;16.45;;
58874;SDS011;44652;49.040;12.126;2023-03-01T10:02:24;29.88;;;17.90;;
58874;SDS011;44652;49.040;12.126;2023-03-01T10:04:54;29.52;;;18.13;;
58874;SDS011;44652;49.040;12.126;2023-03-01T10:07:25;25.98;;;16.88;;
58874;SDS011;44652;49.040;12.126;2023-03-01T10:09:53;26.38;;;16.58;;
58874;SDS011;44652;49.040;12.126;2023-03-01T10:12:20;27.23;;;16.88;;
58874;SDS011;44652;49.040;12.126;2023-03-01T10:19:51;27.27;;;17.30;;
58874;SDS011;44652;49.040;12.126;2023-03-01T10:22:22;30.20;;;17.15;;
58874;SDS011;44652;49.040;12.126;2023-03-01T10:24:51;27.52;;;17.27;;
58874;SDS011;44652;49.040;12.126;2023-03-01T10:27:25;26.07;;;17.20;;
58874;SDS011;44652;49.040;12.126;2023-03-01T10:29:58;29.40;;;17.80;;
58874;SDS011;44652;49.040;12.126;2023-03-01T10:32:29;26.38;;;16.95;;
58874;SDS011;44652;49.040;12.126;2023-03-01T10:34:56;27.48;;;17.27;;
58874;SDS011;44652;49.040;12.126;2023-03-01T10:37:23;28.92;;;17.98;;
58874;SDS011;44652;49.040;12.126;2023-03-01T10:40:05;26.55;;;17.75;;
58874;SDS011;44652;49.040;12.126;2023-03-01T10:42:36;27.40;;;16.35;;
58874;SDS011;44652;49.040;12.126;2023-03-01T10:48:05;30.80;;;18.60;;
58874;SDS011;44652;49.040;12.126;2023-03-01T10:50:32;24.63;;;16.45;;
58874;SDS011;44652;49.040;12.126;2023-03-01T10:52:59;26.15;;;15.95;;
58874;SDS011;44652;49.040;12.126;2023-03-01T10:55:35;23.27;;;16.05;;
58874;SDS011;44652;49.040;12.126;2023-03-01T11:00:45;27.17;;;17.10;;
58874;SDS011;44652;49.040;12.126;2023-03-01T11:03:13;29.50;;;16.65;;
58874;SDS011;44652;49.040;12.126;2023-03-01T11:05:53;23.97;;;15.43;;
58874;SDS011;44652;49.040;12.126;2023-03-01T11:11:04;25.52;;;16.13;;
58874;SDS011;44652;49.040;12.126;2023-03-01T11:13:31;24.25;;;16.25;;
58874;SDS011;44652;49.040;12.126;2023-03-01T11:16:01;28.83;;;17.05;;
58874;SDS011;44652;49.040;12.126;2023-03-01T11:18:29;23.65;;;16.00;;
58874;SDS011;44652;49.040;12.126;2023-03-01T11:21:13;24.02;;;16.80;;
58874;SDS011;44652;49.040;12.126;2023-03-01T11:23:41;19.77;;;14.73;;
58874;SDS011;44652;49.040;12.126;2023-03-01T11:26:09;23.45;;;15.65;;
58874;SDS011;44652;49.040;12.126;2023-03-01T11:28:38;25.75;;;16.98;;
58874;SDS011;44652;49.040;12.126;2023-03-01T11:31:06;26.55;;;17.48;;
58874;SDS011;44652;49.040;12.126;2023-03-01T11:38:56;27.45;;;19.90;;
58874;SDS011;44652;49.040;12.126;2023-03-01T11:41:27;27.05;;;17.77;;
58874;SDS011;44652;49.040;12.126;2023-03-01T12:05:46;21.67;;;16.00;;
58874;SDS011;44652;49.040;12.126;2023-03-01T12:07:59;22.17;;;16.35;;
58874;SDS011;44652;49.040;12.126;2023-03-01T12:47:13;21.63;;;15.88;;
58874;SDS011;44652;49.040;12.126;2023-03-01T12:52:21;21.58;;;15.98;;
58874;SDS011;44652;49.040;12.126;2023-03-01T12:54:49;23.13;;;15.45;;
58874;SDS011;44652;49.040;12.126;2023-03-01T13:02:38;22.42;;;17.05;;
58874;SDS011;44652;49.040;12.126;2023-03-01T13:07:52;24.73;;;15.90;;
58874;SDS011;44652;49.040;12.126;2023-03-01T13:17:49;23.02;;;16.38;;
58874;SDS011;44652;49.040;12.126;2023-03-01T13:20:16;23.25;;;15.77;;
58874;SDS011;44652;49.040;12.126;2023-03-01T13:22:46;19.92;;;15.40;;
58874;SDS011;44652;49.040;12.126;2023-03-01T13:25:20;23.83;;;16.40;;
58874;SDS011;44652;49.040;12.126;2023-03-01T13:27:48;23.38;;;15.65;;
58874;SDS011;44652;49.040;12.126;2023-03-01T13:35:45;19.88;;;15.57;;
58874;SDS011;44652;49.040;12.126;2023-03-01T13:40:57;25.30;;;15.48;;
58874;SDS011;44652;49.040;12.126;2023-03-01T13:43:29;25.57;;;17.10;;
58874;SDS011;44652;49.040;12.126;2023-03-01T13:45:56;23.27;;;16.40;;
58874;SDS011;44652;49.040;12.126;2023-03-01T13:48:25;37.92;;;17.75;;
58874;SDS011;44652;49.040;12.126;2023-03-01T13:53:19;23.63;;;15.93;;
58874;SDS011;44652;49.040;12.126;2023-03-01T13:55:55;23.46;;;16.17;;
58874;SDS011;44652;49.040;12.126;2023-03-01T14:05:18;23.27;;;16.00;;
58874;SDS011;44652;49.040;12.126;2023-03-01T14:17:49;22.08;;;16.33;;
58874;SDS011;44652;49.040;12.126;2023-03-01T14:20:20;22.75;;;15.65;;
58874;SDS011;44652;49.040;12.126;2023-03-01T14:22:47;23.27;;;16.27;;
58874;SDS011;44652;49.040;12.126;2023-03-01T14:27:41;23.27;;;15.77;;
58874;SDS011;44652;49.040;12.126;2023-03-01T14:30:12;21.98;;;15.60;;
58874;SDS011;44652;49.040;12.126;2023-03-01T14:32:40;19.98;;;14.82;;
58874;SDS011;44652;49.040;12.126;2023-03-01T14:35:22;22.13;;;15.52;;
58874;SDS011;44652;49.040;12.126;2023-03-01T14:37:49;19.35;;;14.68;;
58874;SDS011;44652;49.040;12.126;2023-03-01T14:40:23;23.05;;;15.55;;
58874;SDS011;44652;49.040;12.126;2023-03-01T14:42:50;21.63;;;15.45;;
58874;SDS011;44652;49.040;12.126;2023-03-01T14:45:17;22.83;;;15.30;;
58874;SDS011;44652;49.040;12.126;2023-03-01T14:47:44;26.33;;;15.38;;
58874;SDS011;44652;49.040;12.126;2023-03-01T14:50:17;23.80;;;15.00;;
58874;SDS011;44652;49.040;12.126;2023-03-01T14:52:46;24.23;;;15.48;;
58874;SDS011;44652;49.040;12.126;2023-03-01T14:55:18;23.88;;;15.88;;
58874;SDS011;44652;49.040;12.126;2023-03-01T14:57:47;24.20;;;15.75;;
58874;SDS011;44652;49.040;12.126;2023-03-01T15:00:21;21.00;;;15.07;;
58874;SDS011;44652;49.040;12.126;2023-03-01T15:02:48;24.20;;;16.15;;
58874;SDS011;44652;49.040;12.126;2023-03-01T15:05:25;23.50;;;15.63;;
58874;SDS011;44652;49.040;12.126;2023-03-01T15:07:51;19.65;;;14.65;;
58874;SDS011;44652;49.040;12.126;2023-03-01T15:10:36;21.33;;;15.48;;
58874;SDS011;44652;49.040;12.126;2023-03-01T15:13:09;22.73;;;15.68;;
58874;SDS011;44652;49.040;12.126;2023-03-01T15:15:45;22.13;;;15.57;;
58874;SDS011;44652;49.040;12.126;2023-03-01T15:18:21;21.50;;;15.57;;
58874;SDS011;44652;49.040;12.126;2023-03-01T15:20:49;21.45;;;15.52;;
58874;SDS011;44652;49.040;12.126;2023-03-01T15:23:24;23.45;;;16.38;;
58874;SDS011;44652;49.040;12.126;2023-03-01T15:25:52;22.58;;;16.08;;
58874;SDS011;44652;49.040;12.126;2023-03-01T15:28:29;22.40;;;16.30;;
58874;SDS011;44652;49.040;12.126;2023-03-01T15:30:59;21.85;;;15.98;;
58874;SDS011;44652;49.040;12.126;2023-03-01T15:33:28;26.55;;;16.20;;
58874;SDS011;44652;49.040;12.126;2023-03-01T15:38:36;26.98;;;17.10;;
58874;SDS011;44652;49.040;12.126;2023-03-01T15:41:28;24.35;;;16.90;;
58874;SDS011;44652;49.040;12.126;2023-03-01T15:48:52;24.27;;;15.52;;
58874;SDS011;44652;49.040;12.126;2023-03-01T15:51:22;23.35;;;16.25;;
58874;SDS011;44652;49.040;12.126;2023-03-01T15:56:20;24.75;;;16.52;;
58874;SDS011;44652;49.040;12.126;2023-03-01T15:58:46;23.92;;;15.57;;
58874;SDS011;44652;49.040;12.126;2023-03-01T16:01:13;24.42;;;15.65;;
58874;SDS011;44652;49.040;12.126;2023-03-01T16:03:40;24.70;;;16.23;;
58874;SDS011;44652;49.040;12.126;2023-03-01T16:06:10;22.33;;;15.60;;
58874;SDS011;44652;49.040;12.126;2023-03-01T16:08:37;22.33;;;16.50;;
58874;SDS011;44652;49.040;12.126;2023-03-01T16:11:04;24.92;;;16.40;;
58874;SDS011;44652;49.040;12.126;2023-03-01T16:13:32;26.20;;;17.55;;
58874;SDS011;44652;49.040;12.126;2023-03-01T16:15:58;22.77;;;15.60;;
58874;SDS011;44652;49.040;12.126;2023-03-01T16:18:25;25.60;;;16.30;;
58874;SDS011;44652;49.040;12.126;2023-03-01T16:20:51;25.67;;;16.88;;
58874;SDS011;44652;49.040;12.126;2023-03-01T16:23:20;23.70;;;16.85;;
58874;SDS011;44652;49.040;12.126;2023-03-01T16:25:47;23.15;;;16.73;;
58874;SDS011;44652;49.040;12.126;2023-03-01T16:28:14;23.63;;;16.05;;
58874;SDS011;44652;49.040;12.126;2023-03-01T16:30:44;24.85;;;16.33;;
58874;SDS011;44652;49.040;12.126;2023-03-01T16:33:11;23.70;;;16.75;;
58874;SDS011;44652;49.040;12.126;2023-03-01T16:35:56;27.20;;;16.17;;
58874;SDS011;44652;49.040;12.126;2023-03-01T16:38:23;26.02;;;16.77;;
58874;SDS011;44652;49.040;12.126;2023-03-01T16:40:50;24.73;;;16.15;;
58874;SDS011;44652;49.040;12.126;2023-03-01T16:43:17;24.70;;;17.05;;
58874;SDS011;44652;49.040;12.126;2023-03-01T16:45:43;25.02;;;16.65;;
58874;SDS011;44652;49.040;12.126;2023-03-01T16:48:13;26.25;;;16.23;;
58874;SDS011;44652;49.040;12.126;2023-03-01T16:50:40;26.23;;;17.30;;
58874;SDS011;44652;49.040;12.126;2023-03-01T16:53:06;24.60;;;16.10;;
58874;SDS011;44652;49.040;12.126;2023-03-01T16:55:33;22.67;;;15.88;;
58874;SDS011;44652;49.040;12.126;2023-03-01T16:58:00;24.83;;;16.27;;
58874;SDS011;44652;49.040;12.126;2023-03-01T17:00:26;24.17;;;16.50;;
58874;SDS011;44652;49.040;12.126;2023-03-01T17:02:53;25.35;;;16.90;;
58874;SDS011;44652;49.040;12.126;2023-03-01T17:05:20;24.05;;;15.50;;
58874;SDS011;44652;49.040;12.126;2023-03-01T17:07:51;23.90;;;16.67;;
58874;SDS011;44652;49.040;12.126;2023-03-01T17:10:18;24.85;;;15.90;;
58874;SDS011;44652;49.040;12.126;2023-03-01T17:12:47;28.88;;;17.10;;
58874;SDS011;44652;49.040;12.126;2023-03-01T17:15:14;24.63;;;15.57;;
58874;SDS011;44652;49.040;12.126;2023-03-01T17:17:40;24.80;;;16.05;;
58874;SDS011;44652;49.040;12.126;2023-03-01T17:20:07;25.45;;;16.75;;
58874;SDS011;44652;49.040;12.126;2023-03-01T17:22:34;28.90;;;17.38;;
58874;SDS011;44652;49.040;12.126;2023-03-01T17:25:00;27.08;;;17.75;;
58874;SDS011;44652;49.040;12.126;2023-03-01T17:27:27;23.33;;;15.82;;
58874;SDS011;44652;49.040;12.126;2023-03-01T17:29:53;29.10;;;16.40;;
58874;SDS011;44652;49.040;12.126;2023-03-01T17:32:20;24.70;;;15.93;;
58874;SDS011;44652;49.040;12.126;2023-03-01T17:34:46;26.15;;;16.52;;
58874;SDS011;44652;49.040;12.126;2023-03-01T17:37:13;27.00;;;17.10;;
58874;SDS011;44652;49.040;12.126;2023-03-01T17:39:39;24.58;;;16.20;;
58874;SDS011;44652;49.040;12.126;2023-03-01T17:42:06;25.23;;;17.08;;
58874;SDS011;44652;49.040;12.126;2023-03-01T17:44:33;25.98;;;16.40;;
58874;SDS011;44652;49.040;12.126;2023-03-01T17:47:00;27.58;;;17.38;;
58874;SDS011;44652;49.040;12.126;2023-03-01T17:49:27;25.08;;;16.80;;
58874;SDS011;44652;49.040;12.126;2023-03-01T17:51:54;26.80;;;16.85;;
58874;SDS011;44652;49.040;12.126;2023-03-01T17:54:21;26.23;;;16.40;;
58874;SDS011;44652;49.040;12.126;2023-03-01T17:56:48;24.77;;;16.27;;
58874;SDS011;44652;49.040;12.126;2023-03-01T17:59:14;25.05;;;15.32;;
58874;SDS011;44652;49.040;12.126;2023-03-01T18:01:42;24.30;;;15.77;;
58874;SDS011;44652;49.040;12.126;2023-03-01T18:04:09;23.40;;;15.68;;
58874;SDS011;44652;49.040;12.126;2023-03-01T18:06:36;32.92;;;16.88;;
58874;SDS011;44652;49.040;12.126;2023-03-01T18:09:03;24.40;;;15.85;;
58874;SDS011;44652;49.040;12.126;2023-03-01T18:11:31;27.70;;;16.58;;
58874;SDS011;44652;49.040;12.126;2023-03-01T18:13:58;23.80;;;16.27;;
58874;SDS011;44652;49.040;12.126;2023-03-01T18:16:25;28.20;;;15.77;;
58874;SDS011;44652;49.040;12.126;2023-03-01T18:18:53;21.63;;;13.90;;
58874;SDS011;44652;49.040;12.126;2023-03-01T18:21:20;24.85;;;14.43;;
58874;SDS011;44652;49.040;12.126;2023-03-01T18:23:48;24.73;;;14.38;;
58874;SDS011;44652;49.040;12.126;2023-03-01T18:26:14;19.60;;;13.77;;
58874;SDS011;44652;49.040;12.126;2023-03-01T18:28:43;20.70;;;13.68;;
58874;SDS011;44652;49.040;12.126;2023-03-01T18:31:13;23.75;;;14.77;;
58874;SDS011;44652;49.040;12.126;2023-03-01T18:33:43;23.10;;;14.73;;
58874;SDS011;44652;49.040;12.126;2023-03-01T18:36:21;23.80;;;14.88;;
58874;SDS011;44652;49.040;12.126;2023-03-01T18:38:48;24.55;;;14.88;;
58874;SDS011;44652;49.040;12.126;2023-03-01T18:41:14;22.15;;;13.50;;
58874;SDS011;44652;49.040;12.126;2023-03-01T18:43:41;21.85;;;14.23;;
58874;SDS011;44652;49.040;12.126;2023-03-01T18:46:08;23.98;;;14.43;;
58874;SDS011;44652;49.040;12.126;2023-03-01T18:48:34;23.23;;;14.65;;
58874;SDS011;44652;49.040;12.126;2023-03-01T18:51:12;21.65;;;14.27;;
58874;SDS011;44652;49.040;12.126;2023-03-01T18:53:38;21.30;;;13.25;;
58874;SDS011;44652;49.040;12.126;2023-03-01T18:56:05;24.17;;;14.48;;
58874;SDS011;44652;49.040;12.126;2023-03-01T18:58:32;25.05;;;14.55;;
58874;SDS011;44652;49.040;12.126;2023-03-01T19:00:59;22.92;;;14.25;;
58874;SDS011;44652;49.040;12.126;2023-03-01T19:03:29;25.00;;;15.35;;
58874;SDS011;44652;49.040;12.126;2023-03-01T19:05:56;25.05;;;13.98;;
58874;SDS011;44652;49.040;12.126;2023-03-01T19:08:24;23.42;;;14.65;;
58874;SDS011;44652;49.040;12.126;2023-03-01T19:10:54;22.88;;;14.30;;
58874;SDS011;44652;49.040;12.126;2023-03-01T19:13:21;25.08;;;14.10;;
58874;SDS011;44652;49.040;12.126;2023-03-01T19:15:47;20.52;;;13.90;;
58874;SDS011;44652;49.040;12.126;2023-03-01T19:18:14;23.75;;;15.23;;
58874;SDS011;44652;49.040;12.126;2023-03-01T19:20:40;21.90;;;14.68;;
58874;SDS011;44652;49.040;12.126;2023-03-01T19:23:07;20.40;;;13.38;;
58874;SDS011;44652;49.040;12.126;2023-03-01T19:25:33;21.55;;;13.75;;
58874;SDS011;44652;49.040;12.126;2023-03-01T19:28:00;22.58;;;13.95;;
58874;SDS011;44652;49.040;12.126;2023-03-01T19:30:27;23.27;;;14.55;;
58874;SDS011;44652;49.040;12.126;2023-03-01T19:32:53;23.75;;;14.40;;
58874;SDS011;44652;49.040;12.126;2023-03-01T19:35:20;23.38;;;14.00;;
58874;SDS011;44652;49.040;12.126;2023-03-01T19:40:15;26.10;;;16.02;;
58874;SDS011;44652;49.040;12.126;2023-03-01T19:42:41;23.45;;;14.23;;
58874;SDS011;44652;49.040;12.126;2023-03-01T19:45:08;24.38;;;14.60;;
58874;SDS011;44652;49.040;12.126;2023-03-01T19:47:35;25.05;;;14.57;;
58874;SDS011;44652;49.040;12.126;2023-03-01T19:50:02;24.52;;;15.07;;
58874;SDS011;44652;49.040;12.126;2023-03-01T19:52:28;24.13;;;15.10;;
58874;SDS011;44652;49.040;12.126;2023-03-01T19:54:55;23.88;;;15.52;;
58874;SDS011;44652;49.040;12.126;2023-03-01T19:57:34;25.00;;;15.25;;
58874;SDS011;44652;49.040;12.126;2023-03-01T20:00:01;23.17;;;15.07;;
58874;SDS011;44652;49.040;12.126;2023-03-01T20:02:37;25.85;;;16.15;;
58874;SDS011;44652;49.040;12.126;2023-03-01T20:05:04;24.95;;;16.52;;
58874;SDS011;44652;49.040;12.126;2023-03-01T20:07:30;26.98;;;16.05;;
58874;SDS011;44652;49.040;12.126;2023-03-01T20:09:57;24.23;;;15.60;;
58874;SDS011;44652;49.040;12.126;2023-03-01T20:12:23;24.88;;;15.52;;
58874;SDS011;44652;49.040;12.126;2023-03-01T20:14:50;26.45;;;15.50;;
58874;SDS011;44652;49.040;12.126;2023-03-01T20:17:20;36.10;;;15.85;;
58874;SDS011;44652;49.040;12.126;2023-03-01T20:19:48;24.80;;;15.17;;
58874;SDS011;44652;49.040;12.126;2023-03-01T20:22:14;25.55;;;16.05;;
58874;SDS011;44652;49.040;12.126;2023-03-01T20:24:43;26.35;;;16.05;;
58874;SDS011;44652;49.040;12.126;2023-03-01T20:27:10;25.58;;;14.93;;
58874;SDS011;44652;49.040;12.126;2023-03-01T20:29:36;24.40;;;15.32;;
58874;SDS011;44652;49.040;12.126;2023-03-01T20:32:03;25.33;;;15.50;;
58874;SDS011;44652;49.040;12.126;2023-03-01T20:34:31;27.02;;;15.82;;
58874;SDS011;44652;49.040;12.126;2023-03-01T20:36:57;24.02;;;14.73;;
58874;SDS011;44652;49.040;12.126;2023-03-01T20:39:24;26.85;;;15.88;;
58874;SDS011;44652;49.040;12.126;2023-03-01T20:41:51;27.98;;;15.27;;
58874;SDS011;44652;49.040;12.126;2023-03-01T20:44:18;28.05;;;15.63;;
58874;SDS011;44652;49.040;12.126;2023-03-01T20:46:45;25.75;;;16.30;;
58874;SDS011;44652;49.040;12.126;2023-03-01T20:49:11;25.30;;;15.57;;
58874;SDS011;44652;49.040;12.126;2023-03-01T20:51:38;24.90;;;14.93;;
58874;SDS011;44652;49.040;12.126;2023-03-01T20:54:05;26.33;;;15.70;;
58874;SDS011;44652;49.040;12.126;2023-03-01T20:56:32;26.85;;;15.15;;
58874;SDS011;44652;49.040;12.126;2023-03-01T20:59:05;30.20;;;15.35;;
58874;SDS011;44652;49.040;12.126;2023-03-01T21:01:35;25.33;;;15.27;;
58874;SDS011;44652;49.040;12.126;2023-03-01T21:04:01;26.17;;;15.27;;
58874;SDS011;44652;49.040;12.126;2023-03-01T21:06:28;26.83;;;15.50;;
58874;SDS011;44652;49.040;12.126;2023-03-01T21:08:54;26.00;;;15.18;;
58874;SDS011;44652;49.040;12.126;2023-03-01T21:11:21;23.58;;;14.82;;
58874;SDS011;44652;49.040;12.126;2023-03-01T21:13:51;24.85;;;14.48;;
58874;SDS011;44652;49.040;12.126;2023-03-01T21:16:18;26.83;;;14.57;;
58874;SDS011;44652;49.040;12.126;2023-03-01T21:18:46;23.92;;;14.82;;
58874;SDS011;44652;49.040;12.126;2023-03-01T21:21:14;23.85;;;14.45;;
58874;SDS011;44652;49.040;12.126;2023-03-01T21:23:42;25.05;;;15.18;;
58874;SDS011;44652;49.040;12.126;2023-03-01T21:28:39;26.23;;;15.93;;
58874;SDS011;44652;49.040;12.126;2023-03-01T21:31:12;24.48;;;15.43;;
58874;SDS011;44652;49.040;12.126;2023-03-01T21:33:43;25.27;;;14.40;;
58874;SDS011;44652;49.040;12.126;2023-03-01T21:36:10;27.58;;;15.45;;
58874;SDS011;44652;49.040;12.126;2023-03-01T21:38:37;28.77;;;15.60;;
58874;SDS011;44652;49.040;12.126;2023-03-01T21:41:05;25.88;;;15.07;;
58874;SDS011;44652;49.040;12.126;2023-03-01T21:43:32;29.27;;;15.48;;
58874;SDS011;44652;49.040;12.126;2023-03-01T21:46:00;28.50;;;15.00;;
58874;SDS011;44652;49.040;12.126;2023-03-01T21:48:26;26.60;;;14.70;;
